Latest Weather Observations for Devonport Airport

IDT60801

Issued at 2:51 pm EST Wednesday 19 June 2019 (issued every 10 minutes, with the page automatically refreshed every 10 minutes)

About weather observations | Map of weather stations | Latest weather observations for TAS | Other Formats
Station Details ID: 091126 Name: DEVONPORT AIRPORT Lat: -41.17 Lon: 146.43 Height: 8.0 m
Data from the previous 72 hours. | See also: Recent months at Devonport Airport
Date/Time
EST
Temp
°C
App
Temp
°C
Dew
Point
°C
Rel
Hum
%
Delta-T
°C
Wind Press
QNH
hPa
Press
MSL
hPa
Rain since
9am
mm
Dir  Spd
km/h
Gust
km/h
Spd
kts
Gust
kts
19/02:30pm 11.9 5.6 1.5 49 4.4 WSW 24 30 13 16 1022.0 1022.0 0.0
19/02:00pm 12.1 6.6 1.7 49 4.4 WSW 20 28 11 15 1021.9 1021.9 0.0
19/01:30pm 11.9 6.9 1.3 48 4.5 SW 17 24 9 13 1022.0 1022.0 0.0
19/01:00pm 12.0 7.0 1.6 49 4.4 WSW 17 26 9 14 1022.2 1022.2 0.0
19/12:30pm 11.2 5.9 1.7 52 4.0 WSW 19 26 10 14 1022.5 1022.5 0.0
19/12:00pm 11.0 5.4 1.5 52 4.0 WSW 20 26 11 14 1022.6 1022.6 0.0
19/11:30am 11.0 6.2 2.6 56 3.6 WSW 17 24 9 13 1022.9 1022.9 0.0
19/11:00am 10.1 4.7 1.2 54 3.7 WSW 19 26 10 14 1023.1 1023.1 0.0
19/10:30am 9.9 4.5 1.3 55 3.6 SW 19 24 10 13 1023.1 1023.1 0.0
19/10:00am 9.3 4.8 2.4 62 2.9 SW 15 19 8 10 1022.8 1022.8 0.0
19/09:30am 8.3 3.8 2.1 65 2.6 WSW 15 19 8 10 1022.5 1022.5 0.0
19/09:00am 7.2 3.1 2.3 71 2.0 SW 13 15 7 8 1022.2 1022.2 4.0
19/08:30am 6.6 1.6 1.5 70 2.0 SW 17 20 9 11 1021.8 1021.8 4.0
19/08:00am 5.0 2.5 1.3 77 1.4 SW 4 13 2 7 1021.4 1021.4 4.0
19/07:30am 5.7 1.4 1.1 72 1.8 SSW 13 19 7 10 1020.9 1020.9 4.0
19/07:00am 6.0 1.8 1.5 73 1.8 SSW 13 15 7 8 1020.4 1020.4 4.0
19/06:30am 6.4 2.2 1.5 71 2.0 SW 13 17 7 9 1019.9 1019.9 4.0
19/06:00am 6.0 0.6 1.5 73 1.8 SW 19 20 10 11 1019.4 1019.4 4.0
19/05:30am 6.3 1.0 1.8 73 1.8 SW 19 22 10 12 1018.9 1018.9 4.0
19/05:00am 6.4 0.9 2.1 74 1.7 SW 20 24 11 13 1018.7 1018.7 4.0
19/04:30am 7.4 2.0 2.3 70 2.1 SW 20 24 11 13 1018.4 1018.4 4.0
19/04:00am 6.6 1.4 2.5 75 1.7 WSW 19 24 10 13 1018.2 1018.2 4.0
19/03:30am 6.3 1.5 2.4 76 1.6 SW 17 20 9 11 1018.1 1018.1 4.0
19/03:00am 6.6 3.2 1.7 71 2.0 WSW 9 13 5 7 1018.0 1018.0 4.0
19/02:30am 7.3 2.8 2.2 70 2.1 S 15 24 8 13 1017.4 1017.5 4.0
19/02:00am 8.4 5.1 2.4 66 2.5 W 9 15 5 8 1017.3 1017.4 4.0
19/01:30am 8.3 3.3 3.4 71 2.1 W 19 22 10 12 1017.1 1017.2 4.0
19/01:00am 7.4 2.2 3.5 76 1.7 W 20 24 11 13 1016.7 1016.8 4.0
19/12:30am 7.7 1.7 3.2 73 1.9 WSW 24 30 13 16 1016.5 1016.6 4.0
19/12:00am 8.1 1.8 3.6 73 1.9 W 26 32 14 17 1016.2 1016.3 4.0
 
Date/Time
EST
Temp
°C
App
Temp
°C
Dew
Point
°C
Rel
Hum
%
Delta-T
°C
Wind Press
QNH
hPa
Press
MSL
hPa
Rain since
9am
mm
Dir  Spd
km/h
Gust
km/h
Spd
kts
Gust
kts
18/11:30pm 7.7 1.8 3.7 76 1.7 W 24 28 13 15 1016.0 1016.1 4.0
18/11:00pm 7.4 2.2 3.3 75 1.7 WSW 20 26 11 14 1015.8 1015.9 4.0
18/10:30pm 7.7 1.8 3.7 76 1.7 W 24 30 13 16 1015.5 1015.6 4.0
18/10:00pm 7.7 2.5 3.7 76 1.7 W 20 26 11 14 1015.3 1015.4 4.0
18/09:30pm 7.6 2.4 3.5 75 1.7 W 20 26 11 14 1015.1 1015.2 4.0
18/09:00pm 7.6 2.4 3.6 76 1.7 W 20 28 11 15 1014.8 1014.9 4.0
18/08:30pm 7.6 1.6 3.5 75 1.7 W 24 30 13 16 1014.7 1014.8 4.0
18/08:00pm 8.0 2.5 3.8 75 1.8 W 22 30 12 16 1014.8 1014.9 4.0
18/07:30pm 8.7 1.8 4.7 76 1.8 W 30 35 16 19 1014.5 1014.6 4.0
18/07:00pm 8.9 1.5 4.9 76 1.8 WNW 33 39 18 21 1014.0 1014.1 4.0
18/06:30pm 8.2 1.7 4.8 79 1.5 W 28 33 15 18 1013.4 1013.5 4.0
18/06:00pm 7.7 2.0 4.7 81 1.3 W 24 30 13 16 1012.8 1012.9 4.0
18/05:30pm 7.4 2.5 4.0 79 1.5 W 19 20 10 11 1012.7 1012.8 4.0
18/05:00pm 9.0 4.4 5.4 78 1.6 W 19 24 10 13 1012.2 1012.3 4.0
18/04:30pm 10.0 4.4 5.6 74 2.0 W 24 28 13 15 1011.7 1011.8 4.0
18/04:00pm 10.8 5.1 6.6 75 2.0 W 26 32 14 17 1011.3 1011.4 4.0
18/03:30pm 11.3 6.8 7.0 75 2.0 W 20 28 11 15 1010.9 1011.0 4.0
18/03:00pm 12.0 8.0 8.1 77 1.9 W 19 24 10 13 1010.3 1010.4 4.0
18/02:30pm 11.7 7.8 9.3 85 1.2 WNW 20 24 11 13 1010.2 1010.3 4.0
18/02:00pm 12.1 9.1 9.1 82 1.5 NW 15 17 8 9 1010.0 1010.1 4.0
18/01:30pm 11.8 9.6 9.2 84 1.3 WNW 11 15 6 8 1010.3 1010.4 4.0
18/01:00pm 11.0 8.8 9.3 89 0.9 W 11 19 6 10 1010.1 1010.2 4.0
18/12:30pm 11.3 5.2 8.2 81 1.5 WNW 30 39 16 21 1010.7 1010.8 3.0
18/12:00pm 11.5 5.0 8.9 84 1.3 NW 33 44 18 24 1010.8 1010.9 2.8
18/11:30am 12.3 6.8 9.0 80 1.7 NNW 28 39 15 21 1011.2 1011.3 2.8
18/11:24am 12.8 8.1 10.7 87 1.1 NNW 26 32 14 17 1011.3 1011.4 2.8
18/11:07am 11.8 7.2 9.7 87 1.1 NNW 24 30 13 16 1011.6 1011.7 2.8
18/11:00am 11.4 7.5 9.5 88 1.0 NNW 20 28 11 15 1011.6 1011.7 2.8
18/10:30am 10.8 7.0 9.2 90 0.8 NNW 19 26 10 14 1012.0 1012.1 2.8
18/10:00am 10.1 6.5 8.5 90 0.8 WNW 17 22 9 12 1012.4 1012.5 2.6
18/09:36am 10.3 3.4 8.7 90 0.8 WNW 35 48 19 26 1012.4 1012.5 2.0
18/09:30am 10.4 2.3 8.7 89 0.8 WNW 41 50 22 27 1012.5 1012.6 1.4
18/09:11am 10.7 2.7 9.1 90 0.8 WNW 41 56 22 30 1012.1 1012.2 0.4
18/09:00am 11.8 3.3 8.6 81 1.6 WNW 43 57 23 31 1011.8 1011.9 0.2
18/08:55am 11.8 3.1 7.7 76 2.0 NW 43 57 23 31 1011.6 1011.7 0.2
18/08:30am 13.4 5.1 10.2 81 1.7 NNW 44 54 24 29 1011.7 1011.8 0.2
18/08:04am 13.3 6.3 10.1 81 1.7 NNW 37 56 20 30 1011.7 1011.8 0.2
18/08:00am 13.2 6.6 10.0 81 1.6 NNW 35 44 19 24 1011.8 1011.9 0.2
18/07:30am 13.3 5.3 10.5 83 1.5 NNW 43 54 23 29 1012.0 1012.1 0.2
18/07:00am 13.3 5.0 9.9 80 1.7 NNW 44 57 24 31 1012.1 1012.2 0.2
18/06:30am 13.2 5.2 10.4 83 1.5 NNW 43 54 23 29 1012.3 1012.4 0.2
18/06:00am 13.3 6.1 10.7 84 1.4 NNW 39 50 21 27 1012.8 1012.9 0.2
18/05:30am 13.3 6.4 10.3 82 1.6 NNW 37 46 20 25 1013.0 1013.1 0.2
18/05:00am 13.2 6.9 10.9 86 1.2 N 35 44 19 24 1013.1 1013.2 0.2
18/04:30am 13.0 8.0 11.1 88 1.0 N 28 43 15 23 1013.5 1013.6 0.2
18/04:11am 11.9 4.8 9.6 86 1.2 NNW 37 56 20 30 1013.8 1013.9 0.2
18/04:00am 13.4 7.1 11.1 86 1.2 N 35 44 19 24 1013.9 1014.0 0.2
18/03:30am 13.3 7.0 11.0 86 1.2 N 35 44 19 24 1014.1 1014.2 0.2
18/03:00am 13.5 7.2 10.9 84 1.4 N 35 46 19 25 1014.6 1014.7 0.2
18/02:30am 13.4 7.4 10.9 85 1.3 N 33 43 18 23 1015.0 1015.1 0.2
18/02:00am 13.4 7.4 10.8 84 1.4 N 33 44 18 24 1015.3 1015.4 0.2
18/01:30am 13.4 7.1 10.9 85 1.3 N 35 43 19 23 1015.6 1015.7 0.2
18/01:00am 13.3 7.7 11.4 88 1.0 N 32 39 17 21 1016.0 1016.1 0.2
18/12:30am 13.1 7.4 11.3 89 1.0 N 32 39 17 21 1016.3 1016.4 0.2
18/12:00am 13.1 7.7 11.0 87 1.1 N 30 33 16 18 1016.7 1016.8 0.2
 
Date/Time
EST
Temp
°C
App
Temp
°C
Dew
Point
°C
Rel
Hum
%
Delta-T
°C
Wind Press
QNH
hPa
Press
MSL
hPa
Rain since
9am
mm
Dir  Spd
km/h
Gust
km/h
Spd
kts
Gust
kts
17/11:30pm 13.0 8.4 11.2 89 0.9 N 26 30 14 16 1017.0 1017.1 0.2
17/11:00pm 12.8 9.0 11.2 90 0.8 N 22 28 12 15 1017.3 1017.4 0.2
17/10:30pm 12.8 9.0 11.2 90 0.8 N 22 30 12 16 1017.6 1017.7 0.2
17/10:00pm 12.6 8.8 11.3 92 0.7 N 22 26 12 14 1018.1 1018.1 0.2
17/09:30pm 12.5 9.1 11.4 93 0.6 N 20 26 11 14 1018.4 1018.4 0.2
17/09:00pm 12.5 9.1 11.4 93 0.6 N 20 24 11 13 1018.4 1018.4 0.2
17/08:30pm 11.9 9.7 10.8 93 0.6 NNW 13 17 7 9 1018.5 1018.5 0.2
17/08:00pm 11.9 9.8 11.1 95 0.4 NNW 13 15 7 8 1018.8 1018.8 0.2
17/07:30pm 11.7 9.9 10.9 95 0.4 NNW 11 13 6 7 1019.0 1019.0 0.2
17/07:00pm 12.2 9.7 11.1 93 0.6 NW 15 17 8 9 1019.1 1019.1 0.2
17/06:30pm 12.6 10.5 11.3 92 0.7 NW 13 17 7 9 1019.1 1019.1 0.2
17/06:00pm 12.6 9.8 11.5 93 0.6 NW 17 20 9 11 1019.3 1019.3 0.2
17/05:30pm 12.6 9.5 11.5 93 0.6 NW 19 24 10 13 1019.2 1019.2 0.2
17/05:23pm 12.6 9.9 11.7 94 0.5 NW 17 20 9 11 1019.2 1019.2 0.2
17/05:00pm 12.8 10.2 11.9 94 0.5 NW 17 22 9 12 1019.2 1019.2 0.2
17/04:30pm 13.3 10.3 12.0 92 0.7 NW 19 22 10 12 1019.2 1019.2 0.2
17/04:21pm 13.5 11.0 12.4 93 0.6 NW 17 20 9 11 1019.2 1019.2 0.2
17/04:00pm 13.6 11.5 12.3 92 0.7 NW 15 19 8 10 1019.3 1019.3 0.2
17/03:30pm 12.9 11.7 11.5 91 0.7 N 9 11 5 6 1019.3 1019.3 0.2
17/03:00pm 13.1 12.1 11.0 87 1.1 NNE 7 11 4 6 1019.5 1019.5 0.2
17/02:30pm 13.6 12.7 11.3 86 1.2 NNE 7 11 4 6 1019.5 1019.5 0.2
17/02:00pm 13.5 12.7 11.6 88 1.0 NNE 7 9 4 5 1019.6 1019.6 0.2
17/01:30pm 13.5 12.5 10.9 84 1.4 N 7 9 4 5 1019.8 1019.8 0.2
17/01:00pm 13.2 13.5 10.9 86 1.2 CALM 0 0 0 0 1019.9 1019.9 0.2
17/12:30pm 12.7 13.0 10.8 88 1.0 CALM 0 0 0 0 1020.3 1020.3 0.2
17/12:00pm 12.1 11.9 10.3 89 0.9 WSW 2 7 1 4 1020.7 1020.7 0.2
17/11:48am 12.2 11.2 10.4 89 0.9 SSW 6 7 3 4 1020.9 1020.9 0.2
17/11:30am 11.4 10.1 9.8 90 0.8 SSW 7 9 4 5 1021.1 1021.1 0.2
17/11:13am 11.1 10.0 9.9 92 0.6 S 6 7 3 4 1021.2 1021.2 0.2
17/11:00am 10.7 9.3 9.5 92 0.6 S 7 9 4 5 1021.3 1021.3 0.2
17/10:30am 9.7 7.3 8.8 94 0.4 S 11 13 6 7 1021.6 1021.6 0.2
17/10:23am 9.7 7.3 8.8 94 0.4 SSE 11 13 6 7 1021.6 1021.6 0.2
17/10:00am 9.2 7.2 8.6 96 0.3 S 9 11 5 6 1021.6 1021.6 0.2
17/09:55am 9.2 6.8 8.6 96 0.3 S 11 13 6 7 1021.6 1021.6 0.2
17/09:30am 8.8 5.9 8.0 95 0.4 SSE 13 15 7 8 1021.5 1021.5 0.0
17/09:00am 8.4 5.3 7.3 93 0.5 SSE 13 17 7 9 1021.6 1021.6 0.0
17/08:30am 7.8 4.6 6.9 94 0.4 SSE 13 17 7 9 1021.6 1021.6 0.0
17/08:25am 7.7 4.5 7.0 95 0.3 SSE 13 17 7 9 1021.6 1021.6 0.0
17/08:04am 7.4 4.2 6.8 96 0.3 S 13 17 7 9 1021.6 1021.6 0.0
17/08:02am 7.3 4.1 6.7 96 0.3 S 13 17 7 9 1021.5 1021.5 0.0
17/08:00am 7.3 4.1 6.7 96 0.3 SSE 13 17 7 9 1021.5 1021.5 0.0
17/07:30am 7.3 4.0 6.6 95 0.3 S 13 17 7 9 1021.4 1021.4 0.0
17/07:00am 7.4 3.8 6.7 95 0.3 SSE 15 19 8 10 1021.5 1021.5 0.0
17/06:30am 7.2 3.9 6.6 96 0.3 S 13 15 7 8 1021.5 1021.5 0.0
17/06:09am 7.2 3.9 6.5 95 0.3 S 13 15 7 8 1021.4 1021.4 0.0
17/06:00am 7.3 4.1 6.7 96 0.3 S 13 15 7 8 1021.4 1021.4 0.0
17/05:30am 7.0 3.7 6.4 96 0.3 S 13 17 7 9 1021.2 1021.2 0.0
17/05:00am 6.8 3.8 6.2 96 0.3 S 11 15 6 8 1021.1 1021.1 0.0
17/04:30am 6.5 3.1 6.1 97 0.2 S 13 15 7 8 1021.1 1021.1 0.0
17/04:28am 6.4 3.0 6.0 97 0.2 S 13 15 7 8 1021.1 1021.1 0.0
17/04:00am 5.9 2.0 5.3 96 0.3 S 15 19 8 10 1021.2 1021.2 0.0
17/03:30am 6.4 2.6 5.8 96 0.3 S 15 17 8 9 1021.3 1021.3 0.0
17/03:00am 6.8 3.5 6.2 96 0.3 SSE 13 19 7 10 1021.3 1021.3 0.0
17/02:30am 6.8 3.9 6.4 97 0.2 S 11 15 6 8 1021.6 1021.6 0.0
17/02:00am 7.2 3.6 6.8 97 0.2 S 15 17 8 9 1021.8 1021.8 0.0
17/01:30am 6.3 2.5 6.0 98 0.1 S 15 19 8 10 1021.9 1021.9 0.0
17/01:00am 6.8 3.1 6.5 98 0.1 S 15 17 8 9 1022.0 1022.0 0.0
17/12:30am 6.6 3.3 6.3 98 0.1 S 13 17 7 9 1022.3 1022.3 0.0
17/12:00am 6.7 3.4 6.6 99 0.0 S 13 17 7 9 1022.3 1022.3 0.0
 
Date/Time
EST
Temp
°C
App
Temp
°C
Dew
Point
°C
Rel
Hum
%
Delta-T
°C
Wind Press
QNH
hPa
Press
MSL
hPa
Rain since
9am
mm
Dir  Spd
km/h
Gust
km/h
Spd
kts
Gust
kts
16/11:30pm 7.0 3.4 6.9 99 0.0 S 15 17 8 9 1022.5 1022.5 0.0
16/11:20pm 7.2 4.1 7.1 99 0.0 SSE 13 15 7 8 1022.6 1022.6 0.0
16/11:00pm 6.0 2.2 5.9 99 0.0 S 15 17 8 9 1022.8 1022.8 0.0
16/10:59pm 6.0 2.2 5.9 99 0.0 S 15 17 8 9 1022.8 1022.8 0.0
16/10:30pm 5.9 1.7 5.8 99 0.0 S 17 19 9 10 1022.6 1022.6 0.0
16/10:00pm 6.0 2.6 5.9 99 0.0 S 13 15 7 8 1022.6 1022.6 0.0
16/09:30pm 5.3 2.1 5.2 99 0.0 SSE 11 13 6 7 1022.6 1022.6 0.0
16/09:00pm 5.4 2.2 5.3 99 0.0 SSE 11 13 6 7 1022.4 1022.4 0.0
16/08:30pm 5.8 2.4 5.7 99 0.0 SSE 13 15 7 8 1022.3 1022.3 0.0
16/08:00pm 5.6 2.1 5.3 98 0.1 SSE 13 13 7 7 1022.3 1022.3 0.0
16/07:30pm 5.7 2.6 5.4 98 0.1 SSE 11 13 6 7 1022.1 1022.1 0.0
16/07:00pm 5.8 2.7 5.4 97 0.2 SSE 11 13 6 7 1021.9 1021.9 0.0
16/06:30pm 6.1 3.7 5.1 93 0.4 S 7 11 4 6 1021.7 1021.7 0.0
16/06:00pm 7.0 4.9 5.8 92 0.5 WSW 6 7 3 4 1021.6 1021.6 0.0
16/05:30pm 8.2 6.0 6.2 87 0.9 WNW 7 9 4 5 1021.5 1021.5 0.0
16/05:00pm 9.7 7.9 7.1 84 1.2 NW 6 9 3 5 1021.5 1021.5 0.0
16/04:30pm 10.9 9.0 7.4 79 1.7 NNW 7 11 4 6 1021.3 1021.3 0.0
16/04:00pm 11.7 9.7 7.0 73 2.2 NNW 7 11 4 6 1021.3 1021.3 0.0
16/03:30pm 11.7 9.3 6.8 72 2.3 N 9 13 5 7 1021.3 1021.3 0.0
16/03:00pm 12.0 9.0 5.9 66 2.8 N 11 11 6 6 1021.2 1021.2 0.0

Other formats

Comma delimited format used in spreadsheet applications
http://www.bom.gov.au/fwo/IDT60801/IDT60801.95960.axf

JavaScript Object Notation format (JSON) in row-major order
http://www.bom.gov.au/fwo/IDT60801/IDT60801.95960.json

Data quality

Most of these data are generated automatically and are frequently updated. Quality checks on data are not normally performed. It is possible for incorrect values to appear. Refer to information at About Latest Weather Observations and please check the disclaimer before using these data.